createdAt,value
2023-04-06T00:00:35.793Z,3.97
2023-04-06T00:03:03.061Z,4.93
2023-04-06T00:05:31.638Z,6.50
2023-04-06T00:07:59.636Z,6.13
2023-04-06T00:10:27.310Z,4.93
2023-04-06T00:12:54.818Z,4.43
2023-04-06T00:15:22.429Z,7.47
2023-04-06T00:17:49.604Z,3.80
2023-04-06T00:20:17.175Z,5.47
2023-04-06T00:22:45.065Z,3.80
2023-04-06T00:25:12.335Z,4.07
2023-04-06T00:27:40.084Z,3.47
2023-04-06T00:30:07.535Z,4.60
2023-04-06T00:32:34.634Z,3.73
2023-04-06T00:35:01.770Z,4.40
2023-04-06T00:37:28.922Z,6.10
2023-04-06T00:39:55.998Z,5.07
2023-04-06T00:42:26.913Z,4.17
2023-04-06T00:44:55.211Z,3.77
2023-04-06T00:47:22.797Z,4.83
2023-04-06T00:49:50.372Z,3.43
2023-04-06T00:52:17.578Z,4.87
2023-04-06T00:54:45.005Z,4.17
2023-04-06T00:57:13.039Z,4.07
2023-04-06T00:59:40.598Z,4.07
2023-04-06T01:02:08.351Z,5.90
2023-04-06T01:04:35.632Z,4.33
2023-04-06T01:07:02.837Z,3.47
2023-04-06T01:09:33.385Z,2.93
2023-04-06T01:12:00.593Z,3.17
2023-04-06T01:14:27.842Z,3.10
2023-04-06T01:16:55.030Z,4.03
2023-04-06T01:19:24.611Z,3.47
2023-04-06T01:21:54.093Z,6.83
2023-04-06T01:24:21.569Z,5.17
2023-04-06T01:26:48.700Z,3.37
2023-04-06T01:29:15.827Z,4.13
2023-04-06T01:31:42.976Z,3.33
2023-04-06T01:34:10.186Z,5.53
2023-04-06T01:36:37.296Z,4.77
2023-04-06T01:39:04.489Z,4.77
2023-04-06T01:41:31.875Z,4.13
2023-04-06T01:43:58.990Z,5.63
2023-04-06T01:46:26.396Z,3.37
2023-04-06T01:48:53.617Z,6.90
2023-04-06T01:51:20.802Z,4.93
2023-04-06T01:53:49.252Z,5.07
2023-04-06T01:56:16.372Z,5.50
2023-04-06T01:58:43.902Z,6.80
2023-04-06T02:01:11.055Z,4.37
2023-04-06T02:03:38.173Z,4.63
2023-04-06T02:06:05.401Z,4.87
2023-04-06T02:08:32.510Z,3.30
2023-04-06T02:10:59.626Z,5.40
2023-04-06T02:13:26.765Z,7.80
2023-04-06T02:15:53.883Z,4.17
2023-04-06T02:18:21.282Z,4.13
2023-04-06T02:20:48.491Z,4.23
2023-04-06T02:23:15.706Z,3.87
2023-04-06T02:25:42.892Z,5.70
2023-04-06T02:28:10.227Z,4.03
2023-04-06T02:30:37.320Z,3.40
2023-04-06T02:33:04.558Z,4.53
2023-04-06T02:35:32.717Z,4.33
2023-04-06T02:38:00.009Z,3.63
2023-04-06T02:40:27.107Z,3.27
2023-04-06T02:42:54.275Z,3.70
2023-04-06T02:45:21.507Z,3.83
2023-04-06T02:47:48.689Z,3.13
2023-04-06T02:50:16.053Z,2.97
2023-04-06T02:52:43.457Z,5.27
2023-04-06T02:55:10.987Z,3.60
2023-04-06T02:57:38.174Z,4.17
2023-04-06T03:00:05.646Z,4.70
2023-04-06T03:02:32.889Z,3.23
2023-04-06T03:05:00.412Z,2.87
2023-04-06T03:07:27.523Z,4.50
2023-04-06T03:09:54.706Z,6.83
2023-04-06T03:12:21.910Z,5.13
2023-04-06T03:14:49.100Z,4.63
2023-04-06T03:17:16.249Z,3.93
2023-04-06T03:19:43.457Z,3.17
2023-04-06T03:22:10.734Z,5.20
2023-04-06T03:24:37.858Z,3.60
2023-04-06T03:27:05.169Z,4.37
2023-04-06T03:29:32.320Z,4.50
2023-04-06T03:31:59.431Z,5.80
2023-04-06T03:34:26.555Z,5.77
2023-04-06T03:37:06.797Z,5.27
2023-04-06T03:39:36.608Z,3.67
2023-04-06T03:42:03.765Z,4.93
2023-04-06T03:44:30.903Z,4.57
2023-04-06T03:46:58.110Z,3.47
2023-04-06T03:49:25.472Z,5.07
2023-04-06T03:51:52.620Z,5.37
2023-04-06T03:54:19.766Z,7.80
2023-04-06T03:56:46.911Z,6.20
2023-04-06T03:59:14.108Z,4.83
2023-04-06T04:01:41.324Z,4.50
2023-04-06T04:04:08.417Z,6.60
2023-04-06T04:06:37.414Z,4.97
2023-04-06T04:09:04.664Z,5.73
2023-04-06T04:11:31.763Z,5.33
2023-04-06T04:13:58.884Z,6.93
2023-04-06T04:16:26.140Z,3.67
2023-04-06T04:18:53.320Z,6.90
2023-04-06T04:21:20.626Z,6.80
2023-04-06T04:23:47.941Z,4.80
2023-04-06T04:26:15.581Z,5.27
2023-04-06T04:28:42.670Z,3.73
2023-04-06T04:31:09.785Z,4.10
2023-04-06T04:33:36.942Z,4.07
2023-04-06T04:36:04.278Z,4.73
2023-04-06T04:38:31.511Z,5.73
2023-04-06T04:40:58.608Z,4.83
2023-04-06T04:43:25.944Z,4.30
2023-04-06T04:45:53.536Z,7.27
2023-04-06T04:48:20.763Z,4.77
2023-04-06T04:50:47.866Z,5.40
2023-04-06T04:53:15.027Z,10.10
2023-04-06T04:55:42.122Z,5.07
2023-04-06T04:58:10.527Z,4.97
2023-04-06T05:00:37.607Z,5.33
2023-04-06T05:03:05.966Z,6.47
2023-04-06T05:05:33.209Z,6.13
2023-04-06T05:08:00.441Z,5.60
2023-04-06T05:10:27.585Z,5.73
2023-04-06T05:12:54.776Z,5.70
2023-04-06T05:15:21.885Z,6.10
2023-04-06T05:17:49.043Z,6.50
2023-04-06T05:20:16.201Z,5.53
2023-04-06T05:22:43.340Z,5.07
2023-04-06T05:25:10.732Z,6.23
2023-04-06T05:27:37.868Z,6.40
2023-04-06T05:30:05.217Z,5.67
2023-04-06T05:32:32.403Z,5.33
2023-04-06T05:34:59.613Z,4.40
2023-04-06T05:37:26.691Z,7.40
2023-04-06T05:39:53.857Z,8.63
2023-04-06T05:42:20.975Z,5.20
2023-04-06T05:44:48.064Z,6.30
2023-04-06T05:47:15.441Z,6.63
2023-04-06T05:49:45.861Z,6.20
2023-04-06T05:52:12.953Z,7.80
2023-04-06T05:54:40.102Z,7.17
2023-04-06T05:57:07.203Z,5.13
2023-04-06T05:59:34.394Z,6.90
2023-04-06T06:02:02.340Z,7.60
2023-04-06T06:04:30.117Z,6.70
2023-04-06T06:06:57.234Z,5.47
2023-04-06T06:09:24.305Z,7.70
2023-04-06T06:11:52.077Z,6.43
2023-04-06T06:14:19.221Z,8.03
2023-04-06T06:16:46.352Z,8.47
2023-04-06T06:19:13.485Z,7.37
2023-04-06T06:21:40.627Z,9.93
2023-04-06T06:24:09.104Z,6.13
2023-04-06T06:26:38.072Z,12.23
2023-04-06T06:29:06.412Z,8.20
2023-04-06T06:31:33.932Z,7.00
2023-04-06T06:34:01.129Z,7.10
2023-04-06T06:36:28.412Z,8.33
2023-04-06T06:38:55.728Z,14.47
2023-04-06T06:41:22.807Z,8.47
2023-04-06T06:43:49.930Z,9.33
2023-04-06T06:46:17.169Z,6.93
2023-04-06T06:48:44.487Z,6.87
2023-04-06T06:51:12.665Z,6.77
2023-04-06T06:53:39.880Z,7.00
2023-04-06T06:56:07.163Z,7.20
2023-04-06T06:58:34.384Z,7.90
2023-04-06T07:01:01.600Z,8.40
2023-04-06T07:03:28.771Z,9.03
2023-04-06T07:05:55.986Z,6.40
2023-04-06T07:08:24.275Z,6.67
2023-04-06T07:10:57.372Z,8.37
2023-04-06T07:13:25.171Z,7.97
2023-04-06T07:15:52.532Z,7.40
2023-04-06T07:18:21.538Z,7.30
2023-04-06T07:20:48.695Z,10.00
2023-04-06T07:23:16.390Z,7.60
2023-04-06T07:25:43.584Z,7.30
2023-04-06T07:28:10.728Z,10.87
2023-04-06T07:30:38.544Z,7.73
2023-04-06T07:33:06.642Z,7.10
2023-04-06T07:35:34.083Z,6.83
2023-04-06T07:38:01.249Z,7.93
2023-04-06T07:40:28.426Z,7.80
2023-04-06T07:42:56.267Z,8.77
2023-04-06T07:45:25.051Z,7.37
2023-04-06T07:47:52.381Z,6.47
2023-04-06T07:50:19.637Z,7.73
2023-04-06T07:52:46.756Z,6.53
2023-04-06T07:55:13.859Z,7.50
2023-04-06T07:57:40.984Z,6.60
2023-04-06T08:00:10.036Z,8.20
2023-04-06T08:02:37.193Z,8.53
2023-04-06T08:05:04.586Z,6.00
2023-04-06T08:07:31.700Z,6.30
2023-04-06T08:09:58.844Z,6.23
2023-04-06T08:12:26.087Z,7.53
2023-04-06T08:14:53.226Z,6.40
2023-04-06T08:17:20.468Z,6.50
2023-04-06T08:19:47.766Z,6.50
2023-04-06T08:22:14.867Z,5.07
2023-04-06T08:24:42.181Z,5.13
2023-04-06T08:27:09.391Z,7.77
2023-04-06T08:29:36.729Z,6.63
2023-04-06T08:32:06.047Z,7.67
2023-04-06T08:34:34.083Z,5.87
2023-04-06T08:37:01.432Z,8.53
2023-04-06T08:39:31.532Z,7.53
2023-04-06T08:42:00.764Z,5.30
2023-04-06T08:44:28.182Z,8.97
2023-04-06T08:46:56.423Z,6.33
2023-04-06T08:49:23.653Z,5.20
2023-04-06T08:51:51.561Z,4.83
2023-04-06T08:54:19.051Z,4.27
2023-04-06T08:56:46.450Z,5.00
2023-04-06T08:59:13.786Z,4.17
2023-04-06T09:01:44.475Z,4.87
2023-04-06T09:04:13.399Z,4.30
2023-04-06T09:06:41.707Z,4.43
2023-04-06T09:09:09.230Z,4.30
2023-04-06T09:11:50.688Z,4.97
2023-04-06T09:14:18.232Z,5.10
2023-04-06T09:16:46.921Z,7.30
2023-04-06T09:19:14.450Z,3.87
2023-04-06T09:21:41.592Z,4.83
2023-04-06T09:24:09.895Z,3.60
2023-04-06T09:26:47.889Z,5.20
2023-04-06T09:29:25.663Z,4.40
2023-04-06T09:31:52.840Z,4.03
2023-04-06T09:34:24.822Z,4.47
2023-04-06T09:36:53.088Z,3.83
2023-04-06T09:39:25.758Z,3.33
2023-04-06T09:41:53.888Z,4.03
2023-04-06T09:44:21.511Z,4.13
2023-04-06T09:46:58.752Z,4.90
2023-04-06T09:49:31.712Z,3.83
2023-04-06T09:52:01.355Z,4.97
2023-04-06T09:54:30.209Z,7.50
2023-04-06T09:57:06.012Z,3.70
2023-04-06T09:59:33.240Z,4.00
2023-04-06T10:02:00.726Z,4.53
2023-04-06T10:04:45.535Z,3.40
2023-04-06T10:07:12.944Z,3.80
2023-04-06T10:09:40.284Z,4.97
2023-04-06T10:12:07.797Z,3.47
2023-04-06T10:14:38.265Z,4.10
2023-04-06T10:17:06.194Z,3.93
2023-04-06T10:19:43.307Z,4.67
2023-04-06T10:22:12.173Z,4.30
2023-04-06T10:24:39.572Z,3.63
2023-04-06T10:27:09.526Z,4.57
2023-04-06T10:29:44.609Z,2.70
2023-04-06T10:32:11.767Z,5.67
2023-04-06T10:34:38.974Z,3.27
2023-04-06T10:37:15.718Z,4.13
2023-04-06T10:39:49.449Z,2.47
2023-04-06T10:42:16.678Z,2.50
2023-04-06T10:44:45.808Z,2.23
2023-04-06T10:47:18.961Z,3.00
2023-04-06T10:49:46.134Z,2.90
2023-04-06T10:52:14.114Z,3.43
2023-04-06T10:54:44.844Z,3.23
2023-04-06T10:57:12.056Z,3.00
2023-04-06T10:59:43.367Z,4.30
2023-04-06T11:02:21.738Z,2.90
2023-04-06T11:05:00.929Z,4.00
2023-04-06T11:07:30.125Z,3.50
2023-04-06T11:10:13.547Z,3.43
2023-04-06T11:12:43.136Z,4.53
2023-04-06T11:15:10.751Z,4.03
2023-04-06T11:17:38.771Z,3.03
2023-04-06T11:20:06.454Z,3.50
2023-04-06T11:22:33.688Z,3.13
2023-04-06T11:25:07.881Z,4.10
2023-04-06T11:27:36.229Z,4.10
2023-04-06T11:30:04.152Z,3.80
2023-04-06T11:32:31.343Z,3.00
2023-04-06T11:35:00.571Z,3.13
2023-04-06T11:37:29.148Z,4.07
2023-04-06T11:39:58.120Z,3.87
2023-04-06T11:42:30.285Z,5.17
2023-04-06T11:45:02.854Z,4.67
2023-04-06T11:47:31.518Z,5.33
2023-04-06T11:50:07.079Z,4.00
2023-04-06T11:52:34.273Z,3.77
2023-04-06T11:55:12.310Z,4.77
2023-04-06T11:57:39.519Z,3.20
2023-04-06T12:00:07.322Z,4.43
2023-04-06T12:02:34.751Z,3.43
2023-04-06T12:05:02.006Z,3.80
2023-04-06T12:07:30.484Z,3.80
2023-04-06T12:09:57.884Z,3.43
2023-04-06T12:12:24.989Z,3.63
2023-04-06T12:14:52.147Z,5.07
2023-04-06T12:17:20.654Z,4.40
2023-04-06T12:19:48.313Z,4.90
2023-04-06T12:22:15.517Z,3.50
2023-04-06T12:24:42.835Z,6.00
2023-04-06T12:27:11.901Z,4.77
2023-04-06T12:29:42.243Z,3.60
2023-04-06T12:32:09.437Z,4.03
2023-04-06T12:34:36.612Z,3.93
2023-04-06T12:37:03.847Z,3.57
2023-04-06T12:39:31.232Z,4.30
2023-04-06T12:41:58.610Z,6.00
2023-04-06T12:44:27.008Z,4.77
2023-04-06T12:46:54.470Z,4.17
2023-04-06T12:49:22.920Z,3.77
2023-04-06T12:51:50.029Z,3.93
2023-04-06T12:54:17.468Z,4.20
2023-04-06T12:56:44.639Z,4.10
2023-04-06T12:59:12.342Z,5.43
2023-04-06T13:01:39.494Z,4.03
2023-04-06T13:04:06.717Z,3.77
2023-04-06T13:06:33.839Z,4.03
2023-04-06T13:09:01.062Z,3.90
2023-04-06T13:11:28.869Z,5.00
2023-04-06T13:13:56.209Z,5.07
2023-04-06T13:16:23.513Z,3.50
2023-04-06T13:18:51.199Z,3.93
2023-04-06T13:21:18.532Z,3.73
2023-04-06T13:23:46.085Z,4.47
2023-04-06T13:26:14.565Z,4.57
2023-04-06T13:28:42.201Z,4.37
2023-04-06T13:31:10.617Z,4.00
2023-04-06T13:33:37.968Z,4.90
2023-04-06T13:36:05.384Z,4.30
2023-04-06T13:38:32.908Z,4.40
2023-04-06T13:41:00.275Z,3.53
2023-04-06T13:43:27.997Z,4.00
2023-04-06T13:45:56.910Z,4.40
2023-04-06T13:48:24.611Z,4.60
2023-04-06T13:50:51.692Z,3.80
2023-04-06T13:53:18.913Z,4.40
2023-04-06T13:55:53.517Z,4.00
2023-04-06T13:58:20.787Z,2.67
2023-04-06T14:00:48.007Z,6.40
2023-04-06T14:03:15.373Z,3.90
2023-04-06T14:05:42.645Z,3.37
2023-04-06T14:08:09.769Z,4.33
2023-04-06T14:10:41.353Z,3.90
2023-04-06T14:13:08.630Z,3.77
2023-04-06T14:15:36.289Z,3.50
2023-04-06T14:18:03.576Z,3.33
2023-04-06T14:20:33.367Z,3.43
2023-04-06T14:23:04.017Z,3.90
2023-04-06T14:25:33.052Z,3.33
2023-04-06T14:28:00.365Z,3.80
2023-04-06T14:30:28.933Z,4.00
2023-04-06T14:32:59.065Z,4.27
2023-04-06T14:35:28.848Z,3.53
2023-04-06T14:37:56.014Z,5.07
2023-04-06T14:40:23.081Z,3.97
2023-04-06T14:42:52.469Z,3.20
2023-04-06T14:45:22.453Z,3.47
2023-04-06T14:47:49.566Z,3.20
2023-04-06T14:50:16.807Z,3.37
2023-04-06T14:52:43.969Z,4.43
2023-04-06T14:55:11.095Z,4.33
2023-04-06T14:57:38.199Z,4.60
2023-04-06T15:00:05.624Z,3.00
2023-04-06T15:02:34.165Z,3.27
2023-04-06T15:05:01.483Z,3.80
2023-04-06T15:07:28.679Z,3.10
2023-04-06T15:09:55.844Z,3.87
2023-04-06T15:12:22.876Z,4.27
2023-04-06T15:14:49.962Z,3.03
2023-04-06T15:17:17.095Z,3.23
2023-04-06T15:19:44.219Z,2.90
2023-04-06T15:22:12.369Z,3.13
2023-04-06T15:24:39.458Z,3.10
2023-04-06T15:27:06.527Z,4.47
2023-04-06T15:29:33.618Z,3.37
2023-04-06T15:32:00.818Z,4.13
2023-04-06T15:34:31.146Z,3.67
2023-04-06T15:37:02.511Z,3.20
2023-04-06T15:39:29.883Z,2.70
2023-04-06T15:41:59.953Z,3.23
2023-04-06T15:44:27.244Z,3.17
2023-04-06T15:46:54.482Z,2.77
2023-04-06T15:49:21.652Z,3.90
2023-04-06T15:51:49.318Z,5.43
2023-04-06T15:54:17.412Z,3.60
2023-04-06T15:56:44.838Z,2.90
2023-04-06T15:59:11.890Z,3.63
2023-04-06T16:01:40.975Z,2.97
2023-04-06T16:04:08.822Z,3.50
2023-04-06T16:06:36.369Z,3.27
2023-04-06T16:09:03.717Z,3.57
2023-04-06T16:11:32.552Z,3.37
2023-04-06T16:16:27.330Z,3.30
2023-04-06T16:18:54.614Z,3.80
2023-04-06T16:21:21.740Z,4.33
2023-04-06T16:23:48.843Z,3.20
2023-04-06T16:26:18.033Z,3.13
2023-04-06T16:28:45.779Z,3.27
2023-04-06T16:31:20.241Z,3.37
2023-04-06T16:33:47.804Z,4.17
2023-04-06T16:36:14.976Z,3.30
2023-04-06T16:38:42.041Z,3.90
2023-04-06T16:41:09.136Z,4.10
2023-04-06T16:43:36.317Z,4.73
2023-04-06T16:46:03.456Z,5.23
2023-04-06T16:48:31.007Z,3.60
2023-04-06T16:50:58.108Z,4.00
2023-04-06T16:53:25.496Z,3.43
2023-04-06T16:55:52.552Z,3.27
2023-04-06T16:58:19.618Z,5.00
2023-04-06T17:00:46.804Z,4.13
2023-04-06T17:03:14.089Z,3.20
2023-04-06T17:05:41.297Z,4.60
2023-04-06T17:08:08.381Z,3.13
2023-04-06T17:10:41.577Z,4.30
2023-04-06T17:13:18.834Z,3.30
2023-04-06T17:15:45.962Z,3.80
2023-04-06T17:18:13.138Z,3.27
2023-04-06T17:20:40.358Z,3.07
2023-04-06T17:23:07.485Z,3.10
2023-04-06T17:25:34.567Z,3.13
2023-04-06T17:28:01.726Z,3.27
2023-04-06T17:30:28.837Z,2.90
2023-04-06T17:32:55.984Z,4.57
2023-04-06T17:35:23.305Z,2.77
2023-04-06T17:37:50.721Z,3.40
2023-04-06T17:40:17.819Z,3.00
2023-04-06T17:42:45.036Z,2.77
2023-04-06T17:45:12.244Z,3.70
2023-04-06T17:47:39.345Z,3.23
2023-04-06T17:50:06.757Z,4.50
2023-04-06T17:52:33.849Z,3.70
2023-04-06T17:55:00.976Z,3.73
2023-04-06T17:57:28.068Z,5.37
2023-04-06T17:59:55.542Z,3.50
2023-04-06T18:02:23.122Z,3.67
2023-04-06T18:04:53.863Z,4.90
2023-04-06T18:07:21.043Z,3.30
2023-04-06T18:09:48.142Z,4.50
2023-04-06T18:12:15.471Z,4.63
2023-04-06T18:14:43.072Z,4.40
2023-04-06T18:17:10.420Z,5.67
2023-04-06T18:19:37.678Z,7.33
2023-04-06T18:22:04.847Z,7.20
2023-04-06T18:24:41.586Z,9.67
2023-04-06T18:27:09.940Z,8.60
2023-04-06T18:29:37.233Z,10.57
2023-04-06T18:32:04.396Z,8.97
2023-04-06T18:34:31.463Z,5.80
2023-04-06T18:36:59.933Z,6.47
2023-04-06T18:39:27.327Z,9.57
2023-04-06T18:41:54.393Z,8.40
2023-04-06T18:44:21.474Z,8.47
2023-04-06T18:46:48.603Z,8.87
2023-04-06T18:49:15.990Z,13.80
2023-04-06T18:51:43.139Z,6.13
2023-04-06T18:54:10.659Z,5.00
2023-04-06T18:56:38.885Z,4.70
2023-04-06T18:59:06.073Z,5.97
2023-04-06T19:01:33.322Z,5.53
2023-04-06T19:04:01.250Z,4.50
2023-04-06T19:06:28.694Z,4.77
2023-04-06T19:08:56.372Z,4.87
2023-04-06T19:11:25.014Z,3.90
2023-04-06T19:13:53.911Z,6.87
2023-04-06T19:16:21.126Z,5.73
2023-04-06T19:18:48.318Z,4.70
2023-04-06T19:21:16.132Z,6.87
2023-04-06T19:23:43.789Z,3.70
2023-04-06T19:26:11.806Z,4.17
2023-04-06T19:28:39.050Z,4.77
2023-04-06T19:31:09.343Z,6.13
2023-04-06T19:33:37.037Z,5.07
2023-04-06T19:36:05.616Z,4.70
2023-04-06T19:38:34.063Z,6.73
2023-04-06T19:41:02.139Z,6.43
2023-04-06T19:43:29.270Z,7.13
2023-04-06T19:45:56.404Z,4.90
2023-04-06T19:48:23.519Z,5.20
2023-04-06T19:50:54.416Z,6.63
2023-04-06T19:53:22.080Z,14.60
2023-04-06T19:55:49.224Z,10.67
2023-04-06T19:58:16.512Z,10.50
2023-04-06T20:00:43.580Z,13.07
2023-04-06T20:03:10.954Z,8.90
2023-04-06T20:05:38.164Z,13.97
2023-04-06T20:08:05.293Z,10.10
2023-04-06T20:10:32.384Z,6.97
2023-04-06T20:13:01.479Z,6.33
2023-04-06T20:15:29.653Z,8.90
2023-04-06T20:17:56.938Z,8.67
2023-04-06T20:20:24.326Z,7.77
2023-04-06T20:22:51.406Z,11.63
2023-04-06T20:25:19.690Z,6.50
2023-04-06T20:27:46.817Z,7.10
2023-04-06T20:30:17.419Z,5.97
2023-04-06T20:32:44.613Z,7.47
2023-04-06T20:35:11.829Z,6.50
2023-04-06T20:37:39.114Z,8.00
2023-04-06T20:40:06.688Z,7.03
2023-04-06T20:42:34.349Z,7.20
2023-04-06T20:45:02.601Z,6.07
2023-04-06T20:47:30.336Z,8.23
2023-04-06T20:49:57.455Z,6.03
2023-04-06T20:52:24.832Z,8.50
2023-04-06T20:54:52.001Z,6.97
2023-04-06T20:57:19.141Z,7.00
2023-04-06T20:59:46.262Z,7.70
2023-04-06T21:02:13.480Z,7.60
2023-04-06T21:04:41.012Z,5.63
2023-04-06T21:07:08.476Z,8.43
2023-04-06T21:09:39.747Z,9.13
2023-04-06T21:12:07.231Z,10.03
2023-04-06T21:14:34.355Z,8.47
2023-04-06T21:17:01.671Z,7.97
2023-04-06T21:19:28.803Z,7.23
2023-04-06T21:21:56.198Z,7.87
2023-04-06T21:24:23.488Z,5.80
2023-04-06T21:26:50.595Z,7.93
2023-04-06T21:29:17.699Z,5.83
2023-04-06T21:31:44.871Z,13.53
2023-04-06T21:34:12.610Z,6.37
2023-04-06T21:36:40.141Z,6.57
2023-04-06T21:39:07.533Z,9.00
2023-04-06T21:41:35.229Z,6.33
2023-04-06T21:44:02.519Z,7.70
2023-04-06T21:46:29.667Z,8.07
2023-04-06T21:48:56.819Z,6.87
2023-04-06T21:51:24.401Z,7.40
2023-04-06T21:53:53.277Z,6.23
2023-04-06T21:56:24.103Z,7.17
2023-04-06T21:58:52.017Z,7.63
2023-04-06T22:01:19.534Z,9.93
2023-04-06T22:03:47.164Z,8.43
2023-04-06T22:06:14.367Z,9.73
2023-04-06T22:08:41.908Z,9.77
2023-04-06T22:11:10.144Z,10.10
2023-04-06T22:13:37.350Z,9.57
2023-04-06T22:16:04.971Z,8.63
2023-04-06T22:18:32.127Z,11.80
2023-04-06T22:20:59.401Z,10.60
2023-04-06T22:23:26.707Z,7.50
2023-04-06T22:25:53.921Z,9.60
2023-04-06T22:28:21.021Z,8.77
2023-04-06T22:30:48.100Z,8.53
2023-04-06T22:33:15.348Z,8.57
2023-04-06T22:35:42.612Z,10.20
2023-04-06T22:38:09.869Z,10.23
2023-04-06T22:40:37.005Z,13.60
2023-04-06T22:43:04.100Z,10.77
2023-04-06T22:45:31.291Z,12.23
2023-04-06T22:47:58.472Z,10.57
2023-04-06T22:50:26.179Z,10.00
2023-04-06T22:52:53.327Z,9.87
2023-04-06T22:55:20.447Z,9.07
2023-04-06T22:57:47.517Z,12.43
2023-04-06T23:00:14.915Z,10.10
2023-04-06T23:02:42.210Z,11.03
2023-04-06T23:05:09.700Z,9.60
2023-04-06T23:07:36.777Z,11.60
2023-04-06T23:10:04.127Z,10.87
2023-04-06T23:12:31.387Z,10.50
2023-04-06T23:14:58.462Z,11.47
2023-04-06T23:17:25.888Z,9.13
2023-04-06T23:19:53.251Z,13.23
2023-04-06T23:22:20.345Z,11.63
2023-04-06T23:24:48.875Z,8.07
2023-04-06T23:27:16.058Z,8.30
2023-04-06T23:29:43.126Z,9.37
2023-04-06T23:32:10.410Z,11.77
2023-04-06T23:34:37.566Z,8.67
2023-04-06T23:37:04.779Z,8.50
2023-04-06T23:39:32.102Z,9.00
2023-04-06T23:41:59.175Z,9.43
2023-04-06T23:44:29.542Z,8.97
2023-04-06T23:46:56.690Z,7.20
2023-04-06T23:49:23.783Z,8.47
2023-04-06T23:51:51.163Z,9.63
2023-04-06T23:54:18.379Z,8.43
2023-04-06T23:56:46.224Z,9.23
2023-04-06T23:59:13.349Z,10.00
